91WI weather

Gottschalk Field
Nekoosa, Wisconsin, United States

Public forecast

Using degrees Fahrenheit for public forecast. Weather courtesy of forecast.io.

Closest aviation weather report (METAR) to Gottschalk Field

Closest report is Alexander Field South Wood County Airport, 9.2 nm (17.0 km) ENE. Retrieved 2019/10/13 21:54 UTC (8 minutes ago):

KISW 132154Z AUTO 25008KT 10SM SCT042 BKN060 OVC080 03/01 A2979 RMK AO2 RAE13B26E27UPB24E26SNB13E24 SLP098 P0001 T00280006

Closest aviation forecast (TAF) to Gottschalk Field

Forecast is more than 12 hours old.

Closest forecast is Volk Field, 23.3 nm (43.2 km) SSW. Retrieved 2019/10/11 17:09 UTC (2 days ago):

TAF KVOK 111700Z 1117/1223 27010G15KT 9999 OVC020 QNH2982INS BECMG 1122/1123 23012KT 8000 -RA OVC010 620209 QNH2984INS TEMPO 1200/1204 -RASN 620109 BECMG 1204/1205 23009KT 9999 NSW OVC010 QNH2979INS BECMG 1214/1215 23015G25KT 9999 BKN025 QNH2970INS TX07/1117Z TNM01/1213Z LAST NO AMDS AFT 1120 NEXT 1509